Time;durP1;ratioP1;P1;durP2;ratioP2;P2;SDS_P1;SDS_P2;PMS_P1;PMS_P2;Temp;Humidity;BMP_temperature;BMP_pressure;BME280_temperature;BME280_humidity;BME280_pressure;Samples;Min_cycle;Max_cycle;Signal;HPM_P1;HPM_P2
2023/01/22 00:02:07;;;;;;;14.40;9.38;;;;;;;15.80;45.06;93474.13;4940236;28;20046;-93
2023/01/22 00:04:33;;;;;;;12.20;8.65;;;;;;;15.76;44.88;93471.63;4952327;28;20120;-93
2023/01/22 00:06:59;;;;;;;10.82;7.85;;;;;;;15.75;45.33;93473.63;4941281;28;20035;-93
2023/01/22 00:09:24;;;;;;;24.20;15.25;;;;;;;15.81;45.72;93476.34;4954712;28;20046;-93
2023/01/22 00:11:50;;;;;;;24.75;17.02;;;;;;;15.89;46.59;93473.88;4956286;28;20038;-93
2023/01/22 00:14:15;;;;;;;11.07;6.95;;;;;;;15.74;45.43;93483.03;4942663;28;20199;-93
2023/01/22 00:16:41;;;;;;;26.27;17.42;;;;;;;15.89;46.21;93469.19;4975104;28;20068;-93
2023/01/22 00:19:07;;;;;;;12.18;7.50;;;;;;;15.83;45.61;93473.13;4940508;28;20054;-94
2023/01/22 00:21:33;;;;;;;12.77;8.15;;;;;;;15.77;44.89;93475.84;4943495;28;20560;-93
2023/01/22 00:23:58;;;;;;;21.20;15.70;;;;;;;15.87;46.86;93470.91;4941587;28;20043;-93
2023/01/22 00:26:24;;;;;;;13.02;8.82;;;;;;;15.83;45.87;93476.59;4940634;28;20050;-93
2023/01/22 00:28:49;;;;;;;12.00;8.57;;;;;;;15.76;45.51;93468.91;4909557;29;20094;-93
2023/01/22 00:31:16;;;;;;;9.10;6.82;;;;;;;15.68;45.11;93473.34;4917861;29;20384;-93
2023/01/22 00:33:41;;;;;;;13.25;8.40;;;;;;;15.79;46.39;93478.09;4946443;28;20055;-93
2023/01/22 00:36:08;;;;;;;16.52;10.30;;;;;;;15.84;45.73;93475.34;4926614;29;20046;-93
2023/01/22 00:38:34;;;;;;;11.90;7.45;;;;;;;15.76;45.11;93479.81;4940008;28;20619;-93
2023/01/22 00:41:02;;;;;;;22.80;14.15;;;;;;;15.85;46.68;93482.31;4909478;29;20154;-93
2023/01/22 00:43:28;;;;;;;11.20;7.13;;;;;;;15.75;45.39;93481.78;4928650;29;20047;-93
2023/01/22 00:45:54;;;;;;;10.80;7.63;;;;;;;15.73;44.79;93489.72;4922194;29;20058;-93
2023/01/22 00:48:19;;;;;;;21.35;14.63;;;;;;;15.76;46.67;93488.00;4928674;29;20047;-93
2023/01/22 00:50:44;;;;;;;11.27;6.65;;;;;;;15.71;45.21;93494.91;4929052;29;20047;-93
2023/01/22 00:53:10;;;;;;;24.42;15.93;;;;;;;15.84;45.83;93488.25;4922161;29;20099;-93
2023/01/22 00:55:35;;;;;;;21.58;13.77;;;;;;;15.85;46.62;93495.94;4945933;28;20048;-93
2023/01/22 00:58:01;;;;;;;20.75;12.20;;;;;;;15.82;46.57;93493.44;4923529;29;20043;-94
2023/01/22 01:00:26;;;;;;;9.50;7.38;;;;;;;15.79;45.59;93499.91;4938125;28;20054;-94
2023/01/22 01:05:36;;;;;;;24.38;15.30;;;;;;;15.84;45.84;93491.72;4966401;28;20049;-93
2023/01/22 01:08:03;;;;;;;17.00;10.98;;;;;;;15.82;45.84;93496.91;4943752;28;20042;-93
2023/01/22 01:10:29;;;;;;;13.63;9.27;;;;;;;15.85;45.45;93495.94;4943139;28;20366;-93
2023/01/22 01:12:54;;;;;;;20.60;13.07;;;;;;;15.88;46.20;93494.22;4943548;28;20050;-93
2023/01/22 01:15:19;;;;;;;14.15;9.05;;;;;;;15.79;45.15;93492.47;4951204;28;20046;-93
2023/01/22 01:17:45;;;;;;;15.98;10.73;;;;;;;15.81;45.51;93495.41;4943673;28;20031;-93
2023/01/22 01:20:11;;;;;;;22.88;15.65;;;;;;;15.87;45.52;93490.00;4959230;28;20033;-93
2023/01/22 01:22:36;;;;;;;10.90;7.28;;;;;;;15.77;44.91;93497.66;4943709;28;20525;-93
2023/01/22 01:25:01;;;;;;;27.63;17.33;;;;;;;15.79;45.03;93492.47;4943744;28;20046;-94
2023/01/22 01:27:30;;;;;;;23.13;14.80;;;;;;;15.82;47.39;93498.88;4943762;28;20046;-93
2023/01/22 01:29:56;;;;;;;17.13;10.90;;;;;;;15.80;45.48;93490.47;4961306;28;20092;-92
2023/01/22 01:32:21;;;;;;;33.42;20.85;;;;;;;15.79;47.33;93506.09;4942667;28;20046;-93
2023/01/22 01:34:48;;;;;;;19.10;12.23;;;;;;;15.75;45.13;93514.50;4943403;28;20108;-93
2023/01/22 01:37:14;;;;;;;18.92;11.35;;;;;;;15.73;45.68;93508.06;4956001;28;20124;-93
2023/01/22 01:39:39;;;;;;;25.50;16.33;;;;;;;15.84;46.94;93513.53;4959892;28;20123;-93
2023/01/22 01:42:05;;;;;;;21.48;13.07;;;;;;;15.82;46.53;93513.25;4942982;28;20049;-93
2023/01/22 01:44:30;;;;;;;20.20;12.63;;;;;;;15.77;45.58;93520.22;4959461;28;20046;-93
2023/01/22 01:47:00;;;;;;;17.00;11.77;;;;;;;15.85;46.14;93515.00;4943460;28;20481;-93
2023/01/22 01:49:30;;;;;;;9.10;6.03;;;;;;;15.73;45.20;93508.78;4960536;28;20038;-93
2023/01/22 01:52:05;;;;;;;12.73;6.93;;;;;;;15.75;45.48;93516.47;4959345;28;20157;-94
2023/01/22 01:54:30;;;;;;;12.60;9.07;;;;;;;15.80;45.49;93515.03;4959309;28;20450;-94
2023/01/22 01:57:05;;;;;;;12.82;8.10;;;;;;;15.77;45.56;93520.22;4949663;28;20046;-93
2023/01/22 01:59:32;;;;;;;14.00;8.70;;;;;;;15.80;45.58;93537.56;4959932;28;20200;-93
2023/01/22 02:01:57;;;;;;;11.40;7.72;;;;;;;15.73;44.87;93532.56;4943857;28;20039;-93
2023/01/22 02:04:23;;;;;;;10.43;7.43;;;;;;;15.76;46.32;93534.31;4952976;28;20041;-94
2023/01/22 02:06:50;;;;;;;20.00;13.80;;;;;;;15.84;46.44;93526.41;4957252;28;20050;-94
2023/01/22 02:09:15;;;;;;;20.40;13.25;;;;;;;15.75;46.16;93544.47;4946878;28;20030;-93
2023/01/22 02:11:40;;;;;;;14.43;9.25;;;;;;;15.77;45.47;93533.84;4943394;28;20045;-93
2023/01/22 02:14:08;;;;;;;10.73;7.47;;;;;;;15.72;45.00;93539.25;4942176;28;20092;-93
2023/01/22 02:16:33;;;;;;;15.60;10.07;;;;;;;15.77;46.22;93538.53;4963179;28;20041;-93
2023/01/22 02:18:59;;;;;;;31.23;19.40;;;;;;;15.80;46.44;93539.53;4949304;28;20097;-93
2023/01/22 02:21:34;;;;;;;9.93;7.25;;;;;;;15.74;45.70;93545.72;4961638;28;20519;-93
2023/01/22 02:24:00;;;;;;;12.48;7.70;;;;;;;15.68;45.24;93544.94;4944446;28;20045;-93
2023/01/22 02:26:26;;;;;;;9.93;7.25;;;;;;;15.78;45.84;93542.75;4968266;28;20050;-93
2023/01/22 02:28:51;;;;;;;14.88;9.40;;;;;;;15.74;45.47;93550.41;4958931;28;20038;-93
2023/01/22 02:31:17;;;;;;;11.13;7.70;;;;;;;15.70;45.34;93545.19;4942000;28;20599;-94
2023/01/22 02:33:42;;;;;;;10.13;7.13;;;;;;;15.74;45.07;93553.91;4945370;28;20489;-93
2023/01/22 02:36:08;;;;;;;22.40;13.70;;;;;;;15.86;46.23;93549.22;4982129;28;20485;-93
2023/01/22 02:38:33;;;;;;;10.55;6.70;;;;;;;15.76;45.15;93550.69;4942716;28;20042;-94
2023/01/22 02:40:59;;;;;;;26.65;17.85;;;;;;;15.82;46.95;93553.41;4942279;28;20033;-93
2023/01/22 02:43:24;;;;;;;12.13;8.85;;;;;;;15.78;45.73;93550.94;4942279;28;20034;-93
2023/01/22 02:45:50;;;;;;;9.93;7.03;;;;;;;15.74;45.12;93564.78;4942304;28;20494;-93
2023/01/22 02:48:15;;;;;;;15.85;10.00;;;;;;;15.73;44.91;93560.56;4957387;28;20031;-93
2023/01/22 02:50:40;;;;;;;10.57;6.85;;;;;;;15.74;45.04;93550.41;4943020;28;20038;-93
2023/01/22 02:53:06;;;;;;;12.07;7.93;;;;;;;15.70;45.43;93555.34;4941576;28;20054;-93
2023/01/22 02:55:34;;;;;;;25.13;16.58;;;;;;;15.80;46.45;93562.09;4942206;28;20045;-93
2023/01/22 02:58:00;;;;;;;16.33;11.25;;;;;;;15.81;45.85;93558.09;4942217;28;20030;-94
2023/01/22 03:00:26;;;;;;;24.30;16.48;;;;;;;15.82;45.48;93558.84;4942022;28;20046;-93
2023/01/22 03:02:52;;;;;;;15.65;9.82;;;;;;;15.73;45.70;93560.56;4958063;28;20034;-93
2023/01/22 03:05:17;;;;;;;15.05;9.75;;;;;;;15.70;45.49;93553.38;4961679;28;20049;-93
2023/01/22 03:07:43;;;;;;;9.10;6.38;;;;;;;15.68;45.17;93560.56;4942217;28;20050;-93
2023/01/22 03:10:13;;;;;;;9.20;7.07;;;;;;;15.70;45.07;93558.09;4958392;28;20034;-93
2023/01/22 03:23:34;;;;;;;11.35;7.82;;;;;;;15.69;45.54;93560.06;4973817;28;20045;-93
2023/01/22 03:25:59;;;;;;;9.60;7.35;;;;;;;15.69;45.45;93557.34;4942725;28;20030;-93
2023/01/22 03:28:25;;;;;;;13.60;9.38;;;;;;;15.76;45.48;93559.59;4941723;28;20042;-93
2023/01/22 03:30:50;;;;;;;9.13;6.78;;;;;;;15.70;45.17;93561.56;4941796;28;20046;-93
2023/01/22 03:33:16;;;;;;;9.63;7.15;;;;;;;15.70;45.08;93547.19;4942923;28;20560;-93
2023/01/22 03:35:41;;;;;;;9.93;7.30;;;;;;;15.69;45.25;93553.88;4958268;28;20062;-93
2023/01/22 03:38:07;;;;;;;25.98;16.58;;;;;;;15.77;45.59;93552.91;4953393;28;20058;-93
2023/01/22 03:40:32;;;;;;;11.93;7.43;;;;;;;15.71;45.33;93562.31;4942082;28;20038;-93
2023/01/22 03:42:57;;;;;;;23.95;16.65;;;;;;;15.83;46.22;93560.34;4944766;28;20050;-92
2023/01/22 03:45:23;;;;;;;15.10;9.43;;;;;;;15.75;45.24;93558.09;4956992;28;20045;-93
2023/01/22 03:47:50;;;;;;;25.73;16.52;;;;;;;15.82;46.76;93559.59;4957790;28;20053;-93
2023/01/22 03:50:15;;;;;;;10.93;7.85;;;;;;;15.76;45.78;93556.88;4941172;28;20034;-93
2023/01/22 03:52:41;;;;;;;14.90;9.75;;;;;;;15.76;45.15;93572.47;4966258;28;20134;-93
2023/01/22 03:55:06;;;;;;;9.55;6.35;;;;;;;15.72;45.03;93566.50;4940497;28;20172;-93
2023/01/22 03:57:35;;;;;;;11.57;7.93;;;;;;;15.74;45.45;93564.78;4941279;28;20061;-93
2023/01/22 04:00:00;;;;;;;23.33;14.35;;;;;;;15.80;45.59;93569.53;4961544;28;20038;-93
2023/01/22 04:02:27;;;;;;;12.85;8.77;;;;;;;15.77;45.38;93558.38;4941070;28;20599;-93
2023/01/22 04:04:52;;;;;;;11.60;8.38;;;;;;;15.72;45.10;93558.34;4957314;28;20038;-93
2023/01/22 04:07:18;;;;;;;10.88;6.85;;;;;;;15.73;45.21;93560.56;4963422;28;20041;-93
2023/01/22 04:09:43;;;;;;;20.52;13.65;;;;;;;15.80;46.50;93561.34;4941647;28;20141;-93
2023/01/22 04:12:09;;;;;;;10.15;7.25;;;;;;;15.72;44.94;93561.06;4941304;28;20030;-92
2023/01/22 04:14:34;;;;;;;9.15;6.40;;;;;;;15.70;45.20;93552.63;4941318;28;20350;-93
2023/01/22 04:16:59;;;;;;;25.52;17.08;;;;;;;15.79;46.37;93557.88;4950764;28;20038;-93
2023/01/22 04:19:25;;;;;;;30.35;19.52;;;;;;;15.85;46.57;93555.91;4975965;28;20042;-93
2023/01/22 04:21:51;;;;;;;15.57;11.55;;;;;;;15.81;46.38;93547.22;4961770;28;20046;-93
2023/01/22 04:24:16;;;;;;;13.23;7.78;;;;;;;15.76;45.67;93540.53;4961029;28;20049;-93
2023/01/22 04:26:42;;;;;;;37.08;20.63;;;;;;;15.89;46.56;93544.75;4955137;28;20213;-93
2023/01/22 04:29:08;;;;;;;13.40;7.85;;;;;;;15.73;45.15;93540.75;4948945;28;20061;-93
2023/01/22 04:31:33;;;;;;;30.88;18.17;;;;;;;15.80;46.12;93545.75;4960236;28;20091;-93
2023/01/22 04:33:58;;;;;;;10.88;7.28;;;;;;;15.74;45.01;93550.41;4947096;28;20386;-93
2023/01/22 04:36:24;;;;;;;31.90;19.10;;;;;;;15.87;46.46;93547.22;4971368;28;20460;-93
2023/01/22 04:38:49;;;;;;;20.50;11.30;;;;;;;15.85;45.86;93557.88;4944595;28;20481;-93
2023/01/22 04:41:15;;;;;;;15.02;9.82;;;;;;;15.72;45.55;93561.81;4943960;28;20035;-93
2023/01/22 04:43:40;;;;;;;18.42;12.25;;;;;;;15.73;45.30;93565.28;4945418;28;20101;-93
2023/01/22 04:46:06;;;;;;;28.25;18.38;;;;;;;15.79;46.89;93562.59;4943264;28;20051;-93
2023/01/22 04:48:31;;;;;;;25.48;16.90;;;;;;;15.76;46.35;93565.06;4960208;28;20042;-93
2023/01/22 04:50:56;;;;;;;11.45;7.50;;;;;;;15.72;45.10;93563.78;4944835;28;20093;-94
2023/01/22 04:53:22;;;;;;;26.35;17.80;;;;;;;15.79;46.35;93562.59;4975971;28;20050;-93
2023/01/22 04:55:47;;;;;;;23.52;15.98;;;;;;;15.76;45.86;93559.59;4944051;28;20049;-93
2023/01/22 04:58:13;;;;;;;16.42;10.90;;;;;;;15.71;45.44;93559.56;4941716;28;20054;-93
2023/01/22 05:00:38;;;;;;;17.98;12.25;;;;;;;15.75;46.01;93562.81;4944091;28;20061;-93
2023/01/22 05:03:03;;;;;;;30.63;17.48;;;;;;;15.76;46.65;93558.84;4959725;28;20053;-93
2023/01/22 05:05:29;;;;;;;31.17;19.45;;;;;;;15.81;46.51;93563.56;4945905;28;20042;-93
2023/01/22 05:07:55;;;;;;;22.33;13.43;;;;;;;15.75;45.94;93563.56;4960248;28;20042;-93
2023/01/22 05:10:20;;;;;;;14.25;9.45;;;;;;;15.71;45.10;93567.75;4936844;28;20077;-93
2023/01/22 05:12:45;;;;;;;11.02;7.13;;;;;;;15.67;45.25;93575.41;4959868;28;20038;-93
2023/01/22 05:15:11;;;;;;;11.85;7.07;;;;;;;15.64;44.97;93574.41;4952453;28;20034;-93
2023/01/22 05:17:36;;;;;;;9.07;7.03;;;;;;;15.65;45.08;93581.34;4961454;28;20509;-93
2023/01/22 05:20:02;;;;;;;10.68;6.95;;;;;;;15.65;45.29;93575.91;4944169;28;20046;-93
2023/01/22 05:22:27;;;;;;;11.52;8.30;;;;;;;15.71;44.61;93562.31;4942742;28;20501;-93
2023/01/22 05:24:53;;;;;;;19.73;12.10;;;;;;;15.76;45.62;93575.22;4959447;28;20406;-93
2023/01/22 05:27:18;;;;;;;11.98;8.32;;;;;;;15.72;45.15;93580.16;4942792;28;20579;-93
2023/01/22 05:29:44;;;;;;;19.63;13.40;;;;;;;15.79;46.13;93587.13;4963432;28;20046;-93
2023/01/22 05:32:09;;;;;;;27.48;16.52;;;;;;;15.81;46.50;93590.06;4942801;28;20120;-93
2023/01/22 05:34:35;;;;;;;23.13;16.23;;;;;;;15.82;47.16;93588.84;4960255;28;20042;-93
2023/01/22 05:37:00;;;;;;;11.93;7.28;;;;;;;15.73;45.34;93598.72;4959536;28;20047;-93
2023/01/22 05:39:26;;;;;;;10.63;7.43;;;;;;;15.74;45.05;93602.94;4959260;28;20089;-93
2023/01/22 05:41:52;;;;;;;9.73;6.60;;;;;;;15.69;45.18;93598.22;4943594;28;20030;-93
2023/01/22 05:44:17;;;;;;;15.88;10.30;;;;;;;15.75;45.06;93588.09;4958837;28;20046;-93
2023/01/22 05:46:43;;;;;;;10.18;6.88;;;;;;;15.72;45.08;93591.03;4943769;28;20035;-93
2023/01/22 05:49:08;;;;;;;14.73;9.82;;;;;;;15.75;45.54;93584.63;4959492;28;20038;-93
2023/01/22 05:51:34;;;;;;;12.82;8.07;;;;;;;15.76;45.13;93602.47;4943368;28;20039;-93
2023/01/22 05:53:59;;;;;;;11.85;7.22;;;;;;;15.75;45.56;93611.88;4944136;28;20373;-93
2023/01/22 05:56:25;;;;;;;14.63;10.10;;;;;;;15.75;45.86;93606.41;4959425;28;20145;-93
2023/01/22 05:58:50;;;;;;;20.92;12.93;;;;;;;15.76;45.57;93611.38;4942707;28;20030;-93
2023/01/22 06:01:16;;;;;;;18.55;10.55;;;;;;;15.72;45.19;93623.75;4942123;28;20027;-93
2023/01/22 06:03:42;;;;;;;14.50;9.23;;;;;;;15.71;45.35;93619.53;4955341;28;20046;-93
2023/01/22 06:06:09;;;;;;;10.80;7.57;;;;;;;15.69;45.18;93625.47;4950190;28;20035;-92
2023/01/22 06:08:35;;;;;;;17.35;10.63;;;;;;;15.75;45.22;93620.06;4959448;28;20062;-93
2023/01/22 06:11:01;;;;;;;16.85;10.93;;;;;;;15.74;45.95;93624.75;4948212;28;20045;-93
2023/01/22 06:13:27;;;;;;;16.45;9.48;;;;;;;15.71;45.02;93620.28;4942582;28;20043;-93
2023/01/22 06:15:52;;;;;;;11.95;8.40;;;;;;;15.70;44.89;93613.34;4960156;28;20102;-93
2023/01/22 06:18:19;;;;;;;19.52;13.50;;;;;;;15.71;45.62;93620.28;4942642;28;20130;-93
2023/01/22 06:20:44;;;;;;;9.70;7.20;;;;;;;15.70;45.49;93620.75;4951108;28;20050;-93
2023/01/22 06:23:10;;;;;;;11.05;7.07;;;;;;;15.68;45.22;93621.25;4943779;28;20494;-93
2023/01/22 06:25:35;;;;;;;19.40;12.77;;;;;;;15.78;46.08;93627.25;4944853;28;20057;-93
2023/01/22 06:28:01;;;;;;;11.20;7.53;;;;;;;15.68;45.03;93623.97;4943103;28;20043;-93
2023/01/22 06:30:26;;;;;;;15.02;9.82;;;;;;;15.71;45.01;93635.88;4956437;28;20042;-93
2023/01/22 06:32:52;;;;;;;12.82;9.70;;;;;;;15.68;45.55;93645.03;4965814;28;20031;-93
2023/01/22 06:35:18;;;;;;;19.17;13.15;;;;;;;15.76;45.57;93630.47;4960415;28;20146;-92
2023/01/22 06:37:44;;;;;;;25.17;16.02;;;;;;;15.76;46.81;93638.66;4942733;28;20035;-93
2023/01/22 06:40:10;;;;;;;13.45;9.68;;;;;;;15.77;46.06;93639.38;4957578;28;20406;-93
2023/01/22 06:42:36;;;;;;;21.42;14.68;;;;;;;15.81;46.39;93653.50;4957548;28;20077;-93
2023/01/22 06:45:01;;;;;;;19.65;13.18;;;;;;;15.80;45.82;93656.75;4942583;28;20079;-93
2023/01/22 06:47:28;;;;;;;21.98;15.60;;;;;;;15.82;45.88;93667.88;4940931;28;20418;-93
2023/01/22 06:49:53;;;;;;;11.55;7.10;;;;;;;15.73;45.49;93672.31;4958747;28;20034;-93
2023/01/22 06:52:19;;;;;;;29.83;17.30;;;;;;;15.83;46.22;93674.84;4952962;28;20034;-93
2023/01/22 06:54:45;;;;;;;9.80;6.70;;;;;;;15.72;44.72;93675.53;4943036;28;20042;-93
2023/01/22 06:57:10;;;;;;;26.38;16.50;;;;;;;15.84;46.76;93674.34;4957211;28;20034;-93
2023/01/22 06:59:36;;;;;;;10.82;7.10;;;;;;;15.69;45.14;93688.16;4942047;28;20070;-93
2023/01/22 07:02:01;;;;;;;11.45;7.93;;;;;;;15.72;45.13;93689.16;4958416;28;20041;-93
2023/01/22 07:04:27;;;;;;;14.43;10.18;;;;;;;15.73;44.99;93690.66;4941774;28;20034;-93
2023/01/22 07:06:52;;;;;;;9.30;7.00;;;;;;;15.64;45.08;93691.56;4964470;28;20030;-93
2023/01/22 07:09:17;;;;;;;12.75;6.90;;;;;;;15.68;44.97;93692.09;4958073;28;20047;-90
2023/01/22 07:11:43;;;;;;;22.08;15.40;;;;;;;15.68;46.34;93680.47;4955953;28;20046;-91
2023/01/22 07:14:08;;;;;;;14.60;9.48;;;;;;;15.70;45.27;93681.47;4954119;28;20040;-90
2023/01/22 07:16:34;;;;;;;12.32;7.70;;;;;;;15.64;44.99;93680.69;4954952;28;20039;-91
2023/01/22 07:18:59;;;;;;;11.00;7.70;;;;;;;15.65;45.06;93682.16;4971118;28;20039;-91
2023/01/22 07:21:26;;;;;;;22.83;15.80;;;;;;;15.82;46.16;93686.97;4956899;28;20072;-91
2023/01/22 07:23:52;;;;;;;11.45;8.20;;;;;;;15.76;45.89;93684.22;4950548;28;20035;-91
2023/01/22 07:26:18;;;;;;;11.30;7.40;;;;;;;15.69;45.23;93695.56;4954193;28;20091;-91
2023/01/22 07:28:43;;;;;;;12.90;8.77;;;;;;;15.74;46.33;93697.59;4939224;28;20043;-91
2023/01/22 07:31:10;;;;;;;13.98;9.20;;;;;;;15.72;45.48;93681.72;4945613;28;20047;-91
2023/01/22 07:33:36;;;;;;;13.52;8.27;;;;;;;15.72;45.28;93684.47;4956669;28;20034;-91
2023/01/22 07:36:01;;;;;;;16.35;11.30;;;;;;;15.74;45.05;93687.44;4935084;29;20415;-91
2023/01/22 07:38:27;;;;;;;13.57;8.90;;;;;;;15.75;44.81;93690.91;4953894;28;20405;-91
2023/01/22 07:40:52;;;;;;;20.33;12.82;;;;;;;15.79;45.58;93685.25;4951404;28;20046;-91
2023/01/22 07:43:18;;;;;;;9.82;7.03;;;;;;;15.69;44.97;93690.13;4949768;28;20046;-91
2023/01/22 07:45:43;;;;;;;11.40;7.18;;;;;;;15.71;45.14;93691.13;4938650;28;20031;-90
2023/01/22 07:48:09;;;;;;;10.50;7.00;;;;;;;15.69;44.95;93709.19;4937499;28;20161;-91
2023/01/22 07:50:35;;;;;;;10.68;8.38;;;;;;;15.72;45.00;93705.50;4941465;28;20433;-91
2023/01/22 07:53:01;;;;;;;10.90;6.88;;;;;;;15.69;45.02;93709.94;4942272;28;20041;-91
2023/01/22 07:55:26;;;;;;;12.68;7.85;;;;;;;15.73;44.94;93713.19;4938759;28;20035;-91
2023/01/22 07:57:59;;;;;;;12.35;8.82;;;;;;;15.70;45.36;93703.28;4943323;28;20070;-91
2023/01/22 08:00:25;;;;;;;10.52;7.70;;;;;;;15.71;45.21;93704.03;4941560;28;20035;-91
2023/01/22 08:02:51;;;;;;;9.95;7.20;;;;;;;15.70;44.68;93697.81;4948782;28;20047;-90
2023/01/22 08:05:16;;;;;;;19.70;12.50;;;;;;;15.78;45.71;93711.75;4941511;28;20035;-91
2023/01/22 08:07:42;;;;;;;19.55;12.55;;;;;;;15.82;46.35;93706.78;4957414;28;20053;-91
2023/01/22 08:10:08;;;;;;;11.45;7.70;;;;;;;15.71;45.14;93706.75;4973784;28;20359;-90
2023/01/22 08:12:36;;;;;;;11.25;7.22;;;;;;;15.72;45.07;93708.97;4956900;28;20524;-90
2023/01/22 08:15:01;;;;;;;11.65;7.97;;;;;;;15.70;45.08;93706.00;4965192;28;20041;-90
2023/01/22 08:17:27;;;;;;;18.10;10.50;;;;;;;15.74;45.93;93717.44;4957306;28;20034;-90
2023/01/22 08:19:52;;;;;;;10.90;7.63;;;;;;;15.71;44.53;93712.94;4955559;28;20039;-90
2023/01/22 08:22:17;;;;;;;11.73;7.97;;;;;;;15.68;44.99;93716.63;4972495;28;20047;-90
2023/01/22 08:24:43;;;;;;;12.88;8.27;;;;;;;15.72;45.80;93721.88;4940768;28;20042;-90
2023/01/22 08:27:08;;;;;;;10.38;7.60;;;;;;;15.70;45.15;93727.81;4938229;28;20559;-90
2023/01/22 08:29:34;;;;;;;22.80;13.52;;;;;;;15.82;46.26;93727.84;4955741;28;20039;-91
2023/01/22 08:31:59;;;;;;;26.45;16.92;;;;;;;15.79;45.36;93737.78;4973751;28;20043;-91
2023/01/22 08:34:25;;;;;;;12.57;8.48;;;;;;;15.71;45.56;93737.47;4975652;28;20039;-90
2023/01/22 08:36:50;;;;;;;9.48;6.72;;;;;;;15.69;44.95;93742.66;4941473;28;20042;-91
2023/01/22 08:39:16;;;;;;;17.25;11.88;;;;;;;15.80;45.19;93739.28;4941407;28;20047;-90
2023/01/22 08:41:41;;;;;;;13.75;8.18;;;;;;;15.72;45.26;93738.22;4956797;28;20494;-91
2023/01/22 08:44:07;;;;;;;9.88;6.95;;;;;;;15.69;44.91;93739.19;4972133;28;20046;-90
2023/01/22 08:46:34;;;;;;;11.52;7.40;;;;;;;15.68;45.01;93743.88;4973418;28;20047;-90
2023/01/22 08:49:02;;;;;;;9.98;6.70;;;;;;;15.69;44.69;93739.94;4941760;28;20045;-91
2023/01/22 08:51:27;;;;;;;15.88;10.77;;;;;;;15.80;45.91;93738.53;4937576;29;20058;-93
2023/01/22 08:53:53;;;;;;;10.43;6.60;;;;;;;15.70;45.20;93743.41;4956550;28;20047;-93
2023/01/22 08:56:18;;;;;;;29.20;19.08;;;;;;;15.88;46.45;93750.47;4956604;28;20045;-93
2023/01/22 08:58:43;;;;;;;16.42;11.07;;;;;;;15.81;46.00;93746.19;4956870;28;20054;-93
2023/01/22 09:01:17;;;;;;;17.40;12.38;;;;;;;15.86;46.41;93736.56;4971988;28;20038;-93
2023/01/22 09:03:42;;;;;;;8.55;6.20;;;;;;;15.74;44.88;93752.84;4940717;28;20042;-91
2023/01/22 09:06:08;;;;;;;11.10;7.38;;;;;;;15.71;44.69;93750.34;4956070;28;20553;-91
2023/01/22 09:08:33;;;;;;;11.90;7.70;;;;;;;15.71;45.04;93739.44;4960198;28;20071;-90
2023/01/22 09:11:00;;;;;;;11.10;8.05;;;;;;;15.77;45.24;93742.97;4940764;28;20035;-91
2023/01/22 09:13:25;;;;;;;10.80;7.15;;;;;;;15.72;44.76;93740.94;4989933;28;20101;-91
2023/01/22 09:15:55;;;;;;;12.85;7.85;;;;;;;15.79;44.65;93734.31;4966457;28;20034;-91
2023/01/22 09:18:20;;;;;;;9.65;7.28;;;;;;;15.75;44.56;93742.69;4939002;28;20066;-90
2023/01/22 09:20:46;;;;;;;10.32;6.82;;;;;;;15.74;44.75;93749.38;4956653;28;20363;-90
2023/01/22 09:23:11;;;;;;;9.10;7.25;;;;;;;15.75;45.04;93751.63;4956803;28;20524;-90
2023/01/22 09:25:36;;;;;;;13.27;9.00;;;;;;;15.77;44.41;93751.91;4939131;28;20054;-91
2023/01/22 09:28:06;;;;;;;13.30;8.95;;;;;;;15.75;44.87;93759.81;4937604;29;20035;-91
2023/01/22 09:30:31;;;;;;;13.90;8.95;;;;;;;15.76;44.87;93749.66;4956010;28;20449;-91
2023/01/22 09:32:57;;;;;;;18.27;11.88;;;;;;;15.85;45.83;93756.88;4940082;28;20046;-91
2023/01/22 09:35:23;;;;;;;10.25;7.35;;;;;;;15.83;44.87;93756.63;4956896;28;20050;-91
2023/01/22 09:37:48;;;;;;;10.05;7.22;;;;;;;15.77;44.80;93756.59;4955720;28;20418;-91
2023/01/22 09:40:19;;;;;;;10.45;7.68;;;;;;;15.80;44.71;93761.09;4987616;28;20043;-91
2023/01/22 09:42:45;;;;;;;20.42;12.82;;;;;;;15.86;46.02;93763.81;4972045;28;20521;-90
2023/01/22 09:45:11;;;;;;;9.60;6.43;;;;;;;15.78;45.42;93763.53;4971214;28;20039;-90
2023/01/22 09:47:41;;;;;;;11.10;7.43;;;;;;;15.77;44.65;93756.59;4955829;28;20096;-91
2023/01/22 09:50:11;;;;;;;11.70;9.10;;;;;;;15.80;44.90;93754.88;4954759;28;20042;-91
2023/01/22 09:52:36;;;;;;;12.32;9.07;;;;;;;15.84;45.79;93758.09;4972044;28;20042;-90
2023/01/22 09:55:02;;;;;;;9.95;7.60;;;;;;;15.80;44.92;93754.88;4955248;28;20037;-91
2023/01/22 09:57:27;;;;;;;9.77;6.45;;;;;;;15.79;44.45;93761.56;4955089;28;20043;-91
2023/01/22 09:59:55;;;;;;;9.70;7.05;;;;;;;15.78;45.16;93755.38;4955608;28;20536;-91
2023/01/22 10:02:20;;;;;;;9.38;6.70;;;;;;;15.77;44.31;93760.06;4938162;28;20049;-90
2023/01/22 10:04:46;;;;;;;18.58;11.55;;;;;;;15.84;45.89;93758.84;4978579;28;20042;-91
2023/01/22 10:07:16;;;;;;;22.27;13.95;;;;;;;15.88;46.58;93761.38;4959310;28;20039;-90
2023/01/22 10:09:41;;;;;;;9.40;7.15;;;;;;;15.82;44.90;93761.31;4969840;28;21142;-93
2023/01/22 10:12:12;;;;;;;13.73;9.07;;;;;;;15.82;44.49;93761.31;4970028;28;20109;-93
2023/01/22 10:14:37;;;;;;;10.68;6.93;;;;;;;15.77;44.70;93760.06;4954961;28;20129;-93
2023/01/22 10:17:02;;;;;;;14.68;8.15;;;;;;;15.82;44.80;93755.88;4953785;28;20046;-92
2023/01/22 10:19:35;;;;;;;19.23;12.25;;;;;;;15.87;45.21;93759.88;4970726;28;20047;-93
2023/01/22 10:22:09;;;;;;;11.57;7.53;;;;;;;15.82;44.97;93768.75;4941446;28;20039;-93
2023/01/22 10:24:34;;;;;;;11.43;7.70;;;;;;;15.77;44.55;93760.06;4953844;28;20042;-93
2023/01/22 10:27:15;;;;;;;11.20;7.30;;;;;;;15.80;44.96;93766.53;4954831;28;20105;-93
2023/01/22 10:29:42;;;;;;;10.82;7.18;;;;;;;15.80;44.76;93755.63;4938484;28;20039;-93
2023/01/22 10:32:22;;;;;;;19.48;12.85;;;;;;;15.85;45.25;93760.34;4953760;28;20043;-93
2023/01/22 10:34:58;;;;;;;19.45;12.18;;;;;;;15.87;45.61;93763.34;4953850;28;20049;-93
2023/01/22 10:37:23;;;;;;;15.55;10.07;;;;;;;15.91;44.97;93755.69;4953200;28;20125;-93
2023/01/22 10:39:51;;;;;;;10.40;7.75;;;;;;;15.83;44.65;93762.81;4938672;28;20039;-93
2023/01/22 10:42:18;;;;;;;17.25;10.85;;;;;;;15.89;45.84;93766.34;4953555;28;20089;-93
2023/01/22 10:44:44;;;;;;;11.10;8.10;;;;;;;15.85;45.39;93771.25;4954049;28;20039;-93
2023/01/22 10:47:19;;;;;;;9.00;6.45;;;;;;;15.84;45.09;93758.84;4953504;28;20113;-93
2023/01/22 10:49:45;;;;;;;13.93;8.98;;;;;;;15.90;45.38;93762.38;4954370;28;20050;-93
2023/01/22 10:52:21;;;;;;;11.65;8.45;;;;;;;15.88;45.12;93772.28;4969794;28;20038;-93
2023/01/22 10:54:51;;;;;;;10.25;7.53;;;;;;;15.83;44.75;93771.00;4954363;28;20043;-93
2023/01/22 10:57:25;;;;;;;23.00;15.55;;;;;;;15.91;46.29;93769.31;4937194;28;20034;-93
2023/01/22 10:59:58;;;;;;;10.95;7.78;;;;;;;15.83;44.63;93770.25;4959199;28;20086;-93
2023/01/22 11:02:24;;;;;;;11.75;7.18;;;;;;;15.80;44.83;93765.78;4953191;28;20122;-93
2023/01/22 11:04:50;;;;;;;10.18;6.93;;;;;;;15.77;44.86;93762.06;4969782;28;20046;-93
2023/01/22 11:07:23;;;;;;;15.75;11.82;;;;;;;15.89;44.89;93762.84;4937009;28;20509;-93
2023/01/22 11:09:55;;;;;;;17.20;10.93;;;;;;;15.87;45.47;93762.59;4953890;28;20053;-93
2023/01/22 11:12:35;;;;;;;30.63;16.95;;;;;;;15.89;46.09;93765.59;4968869;28;20039;-93
2023/01/22 11:15:23;;;;;;;9.90;6.72;;;;;;;15.83;45.16;93757.34;4956481;28;20482;-93
2023/01/22 11:17:51;;;;;;;16.15;11.75;;;;;;;15.84;45.14;93753.41;4953683;28;20058;-93
2023/01/22 11:20:23;;;;;;;9.75;7.28;;;;;;;15.81;44.89;93751.66;4934261;28;20043;-93
2023/01/22 11:23:04;;;;;;;15.85;10.23;;;;;;;15.87;45.61;93762.59;4953850;28;20516;-93
2023/01/22 11:25:46;;;;;;;10.30;7.40;;;;;;;15.85;45.07;93749.44;4968157;28;20047;-93
2023/01/22 11:28:21;;;;;;;11.93;7.65;;;;;;;15.86;44.73;93755.66;4937569;28;20026;-93
2023/01/22 11:30:58;;;;;;;13.00;8.30;;;;;;;15.82;44.96;93755.13;4969222;28;20597;-93
2023/01/22 11:33:32;;;;;;;11.20;7.72;;;;;;;15.84;45.04;93749.94;4957137;28;20038;-93
2023/01/22 11:36:13;;;;;;;10.10;7.05;;;;;;;15.84;44.96;93747.94;4968914;28;20043;-93